Terminal Aerodrome Forecast
Issued by NWS

Home | Current Version | Previous Version | Text Only | Print | Product List | Glossary On
Versions: 1 2 3 4 5 6 7 8 9 10 11 12 13 14 15
146
FTUS43 KGRB 010520
TAFATW
TAF
KATW 010520Z 0106/0206 12006KT P6SM SCT025 OVC050
      TEMPO 0106/0108 2SM SHRA BKN025 OVC040
     FM010800 11004KT 6SM -SHRA SCT018 OVC035
      TEMPO 0108/0112 1SM SHRA BKN018
     FM011200 16007KT 3SM SHRA OVC009
     FM011600 18008KT P6SM VCSH OVC040
     FM012300 23009KT P6SM SCT250
     FM020300 26006KT P6SM SCT250=

USA.gov is the U.S. government's official web portal to all federal, state and local government web resources and services.